Portada
METAR-TAF:

METAR-TAF

Aeroports :

Gove Peninsula, Austràlia

latitud: 12-16-12S, longitud: 136-49-06E, altitud: 62 m

Observació

L'informe es va fer fa 38 minuts, a les 19:30 UTC
Vent 5 kt del Nord/Nord-Est
Temperatura 25°C
Humitat 89%
Pressió 1010 hPa
Visibilitat 10 km o més

METAR: YPGV 131930Z AUTO 02005KT 9999 // NCD 25/23 Q1010 RF00.0/000.0

Hora: 05:38 (20:08 UTC)

Pronòstic

L'informe es va fer fa 44 minuts, a les 19:24 UTC
Pronòstic vàlid del 13 a les 20 UTC al 14 a les 08 UTC
Vent 10 kt del Nord-Est
Visibilitat 10 km o més
Escasses núvols a una alçada de 2000 ft
A partir de les 14 a les 0000 UTC
Vent 10 kt del Sud/Sud-Est
Visibilitat 10 km o més
Núvols disperses a una alçada de 3000 ft

TAF: YPGV 131924Z 1320/1408 05010KT 9999 FEW020 FM140000 16010KT 9999 SCT030

Observacions i pronòstics meteorològics de més de 4000 aeroports (METAR i TAF).

Les estacions disponibles són els punts grocs i vermells al mapa.

Posi el ratolí al punt desitjat per veure el nom de l'estació.

Feu clic per veure les observacions i els pronòstics meteorològics.

Per canviar el mapa: feu clic els botons verds amb una creu de color negre per apropar; al botó verd amb un guió per allunyar la imatge; o en les fletxes verdes per a mapes adjacents.


METAR-TAF: